Главная страница
METAR-TAF:

METAR-TAF

Аэропорты :

Цельтвег, Австрия

широта: 47-12N, долгота: 014-45E, высота над уровнем моря: 677 м

Текущие метеонаблюдения

Эта сводка был подготовлена 16 минут назад, в 05:50 UTC
Ветер 1 Узел от южный-юго-западный
Температура 11°C
Влажность 94%
Давление 1021 hPa
Видимость: 8000 м

METAR: LOXZ 230550Z 21001KT 8000 FEW002ST SCT005ST BKN040SC 11/10 Q1021 NOSIG

Время: 08:06 (06:06 UTC)

Прогноз

Эта сводка был подготовлена 51 минут назад, в 05:15 UTC
Прогноз действительный с 23-го 06 UTC до 23-го 15 UTC
Ветер 3 Узел переменных направлений
Видимость 10 км и более
небольшая облачность на высоте 800 фута
Рассеянная облачность на высоте 4500 фута
временами
С 23-го 06 UTC до 23-го 08 UTC
небольшая облачность на высоте 300 фута
Рассеянная облачность на высоте 800 фута
небольшой дождь
изменения
С 23-го 10 UTC до 23-го 12 UTC
Отдельные облака на высоте 5000 фута

TAF: LOXZ 230515Z 2306/2315 VRB03KT 9999 FEW008 BKN045 TEMPO 2306/2308 -RA FEW003 BKN008 BECMG 2310/2312 SCT050

Метеонаблюдения и прогнозы для более 4000 аэропортов (сводки METAR и TAF).

Имеющиеся станции представлены на карте желтыми и красными точками.

Чтобы увидеть название станции, наведите на нее мышь.

Затем щелкните, чтобы увидеть метеонаблюдения и метеопрогнозы.

Управление картой: чтобы увеличить масштаб, щелкните зеленые кнопки с черным крестиком; чтобы уменьшить масштаб, щелкните зеленую кнопку с тире; для просмотра соседних карт щелкайте зеленые стрелки.


METAR-TAF: